Time;durP1;ratioP1;P1;durP2;ratioP2;P2;SDS_P1;SDS_P2;PMS_P1;PMS_P2;Temp;Humidity;BMP_temperature;BMP_pressure;BME280_temperature;BME280_humidity;BME280_pressure;Samples;Min_cycle;Max_cycle;Signal;HPM_P1;HPM_P2
2023/03/18 00:00:14;;;;;;;2.75;1.70;;;10.00;94.80;;;;;;5049761;28;20201;-70
2023/03/18 00:02:42;;;;;;;3.33;1.80;;;10.00;94.20;;;;;;5050477;28;20292;-70
2023/03/18 00:05:10;;;;;;;1.40;1.15;;;10.00;93.50;;;;;;5039871;28;20233;-70
2023/03/18 00:07:37;;;;;;;1.48;1.02;;;10.10;92.80;;;;;;5051002;28;20311;-69
2023/03/18 00:10:04;;;;;;;2.60;1.67;;;10.30;92.60;;;;;;5051301;28;20228;-69
2023/03/18 00:12:32;;;;;;;2.00;1.35;;;10.40;92.50;;;;;;5051280;28;20197;-69
2023/03/18 00:14:58;;;;;;;1.33;1.23;;;10.50;92.30;;;;;;5051414;28;20283;-69
2023/03/18 00:17:25;;;;;;;2.63;1.42;;;10.50;92.20;;;;;;5050935;28;20214;-70
2023/03/18 00:19:53;;;;;;;2.28;1.48;;;10.60;92.20;;;;;;5051570;28;20228;-70
2023/03/18 00:22:20;;;;;;;1.38;1.13;;;10.60;92.20;;;;;;5043305;28;20292;-69
2023/03/18 00:24:48;;;;;;;3.13;1.50;;;10.60;92.40;;;;;;5050758;28;20220;-70
2023/03/18 00:27:15;;;;;;;2.10;1.50;;;10.60;92.80;;;;;;5050906;28;20603;-69
2023/03/18 00:29:42;;;;;;;1.85;1.27;;;10.60;92.70;;;;;;5051189;28;20683;-69
2023/03/18 00:32:08;;;;;;;1.88;1.38;;;10.60;92.50;;;;;;5050945;28;20201;-69
2023/03/18 00:34:35;;;;;;;2.92;1.80;;;10.60;92.50;;;;;;5050701;28;20692;-69
2023/03/18 00:37:03;;;;;;;2.20;1.60;;;10.60;92.60;;;;;;5050528;28;20213;-70
2023/03/18 00:39:31;;;;;;;2.85;1.73;;;10.70;92.30;;;;;;5050037;28;20660;-70
2023/03/18 00:42:00;;;;;;;1.40;1.30;;;10.80;92.20;;;;;;5050679;28;20223;-70
2023/03/18 00:44:28;;;;;;;1.83;1.30;;;10.80;92.10;;;;;;5050563;28;20217;-70
2023/03/18 00:46:55;;;;;;;2.50;1.30;;;10.80;92.40;;;;;;5050675;28;20763;-70
2023/03/18 00:49:23;;;;;;;2.50;1.60;;;10.90;92.10;;;;;;5042327;28;20621;-69
2023/03/18 00:51:50;;;;;;;4.57;1.98;;;10.90;92.00;;;;;;5050793;28;20197;-70
2023/03/18 00:54:19;;;;;;;3.28;1.38;;;10.90;92.00;;;;;;5050288;28;20248;-70
2023/03/18 00:56:47;;;;;;;1.83;1.60;;;10.90;92.30;;;;;;5050449;28;20216;-70
2023/03/18 00:59:15;;;;;;;1.50;1.40;;;10.90;92.20;;;;;;5050688;28;20205;-69
2023/03/18 01:01:43;;;;;;;4.63;1.60;;;10.90;92.30;;;;;;5046993;28;20240;-70
2023/03/18 01:04:10;;;;;;;3.13;1.77;;;10.80;92.30;;;;;;5031778;28;20636;-70
2023/03/18 01:06:38;;;;;;;2.50;1.45;;;10.80;92.40;;;;;;5036059;28;20284;-70
2023/03/18 01:09:10;;;;;;;2.42;1.30;;;10.80;92.30;;;;;;5050266;28;20212;-71
2023/03/18 01:11:38;;;;;;;1.65;1.48;;;10.80;92.30;;;;;;5050014;28;20296;-69
2023/03/18 01:14:11;;;;;;;2.08;1.42;;;10.80;92.20;;;;;;5050864;28;20224;-70
2023/03/18 01:16:37;;;;;;;4.45;1.95;;;10.80;92.20;;;;;;5049899;28;20264;-70
2023/03/18 01:19:08;;;;;;;1.83;1.60;;;10.80;92.00;;;;;;5050427;28;20204;-70
2023/03/18 01:21:35;;;;;;;1.95;1.50;;;10.80;91.70;;;;;;5050539;28;20588;-69
2023/03/18 01:24:03;;;;;;;2.25;1.73;;;10.80;92.20;;;;;;5049453;28;20220;-70
2023/03/18 01:26:29;;;;;;;1.48;1.38;;;10.80;91.80;;;;;;5034252;28;20197;-70
2023/03/18 01:28:58;;;;;;;1.70;1.45;;;10.90;91.60;;;;;;5050684;28;20580;-70
2023/03/18 01:31:25;;;;;;;1.50;1.10;;;10.90;91.50;;;;;;5038409;28;20289;-70
2023/03/18 01:33:52;;;;;;;2.65;1.50;;;10.90;91.50;;;;;;5030442;28;20764;-69
2023/03/18 01:36:18;;;;;;;1.45;1.30;;;10.90;91.40;;;;;;5039844;28;20552;-69
2023/03/18 01:38:45;;;;;;;4.10;1.88;;;11.00;91.20;;;;;;5062476;22;20719;-69
2023/03/18 01:41:12;;;;;;;1.50;1.23;;;11.10;91.30;;;;;;5049966;28;20205;-69
2023/03/18 01:43:42;;;;;;;1.85;1.55;;;11.10;91.30;;;;;;5049879;28;20722;-69
2023/03/18 01:46:37;;;;;;;2.67;1.60;;;11.10;91.80;;;;;;5049106;28;20300;-69
2023/03/18 01:49:09;;;;;;;1.60;1.50;;;11.10;91.50;;;;;;5032444;28;20212;-69
2023/03/18 01:51:37;;;;;;;1.65;1.40;;;11.10;91.90;;;;;;5042663;28;20197;-69
2023/03/18 01:54:06;;;;;;;2.40;1.20;;;11.10;91.50;;;;;;5036563;28;20221;-70
2023/03/18 01:56:36;;;;;;;1.42;1.20;;;11.00;91.50;;;;;;5034295;28;20730;-70
2023/03/18 01:59:06;;;;;;;2.20;1.45;;;11.00;91.30;;;;;;5043771;28;20709;-68
2023/03/18 02:01:40;;;;;;;1.80;1.30;;;11.00;91.20;;;;;;5048852;28;20288;-69
2023/03/18 02:04:10;;;;;;;1.48;1.10;;;11.10;91.30;;;;;;5048931;28;20235;-69
2023/03/18 02:06:38;;;;;;;1.58;1.30;;;11.10;91.30;;;;;;5048908;28;20220;-70
2023/03/18 02:09:06;;;;;;;1.75;1.40;;;11.20;91.10;;;;;;5049418;28;20208;-70
2023/03/18 02:11:38;;;;;;;4.13;1.27;;;11.20;90.80;;;;;;5036555;28;21003;-69
2023/03/18 02:14:06;;;;;;;2.13;1.45;;;11.30;91.00;;;;;;5028729;28;20221;-70
2023/03/18 02:16:38;;;;;;;1.83;1.30;;;11.30;90.90;;;;;;5043446;28;20223;-70
2023/03/18 02:19:14;;;;;;;2.00;1.20;;;11.20;90.90;;;;;;5044606;28;20201;-70
2023/03/18 02:21:50;;;;;;;1.55;1.33;;;11.20;91.00;;;;;;5032882;28;20574;-70
2023/03/18 02:24:31;;;;;;;1.52;1.20;;;11.20;91.00;;;;;;5033237;28;20221;-69
2023/03/18 02:27:02;;;;;;;2.47;1.98;;;11.20;90.90;;;;;;5033687;28;20938;-70
2023/03/18 02:29:35;;;;;;;1.95;1.30;;;11.20;91.10;;;;;;5033801;28;20543;-69
2023/03/18 02:32:04;;;;;;;1.42;1.33;;;11.10;91.00;;;;;;5033513;28;20212;-70
2023/03/18 02:34:32;;;;;;;2.00;1.15;;;11.10;91.10;;;;;;5033354;28;20232;-70
2023/03/18 02:36:59;;;;;;;1.20;1.00;;;11.10;91.40;;;;;;5033368;28;20217;-69
2023/03/18 02:39:28;;;;;;;1.80;1.40;;;11.10;91.30;;;;;;5032699;28;20259;-70
2023/03/18 02:41:55;;;;;;;1.63;1.30;;;11.10;91.40;;;;;;5033531;28;20213;-69
2023/03/18 02:44:22;;;;;;;1.20;1.10;;;11.00;91.40;;;;;;5032813;28;20248;-69
2023/03/18 02:46:54;;;;;;;1.40;1.30;;;11.00;91.20;;;;;;5033272;28;20198;-69
2023/03/18 02:49:22;;;;;;;5.68;1.52;;;11.00;91.30;;;;;;5033180;28;20220;-70
2023/03/18 02:51:50;;;;;;;1.95;1.40;;;11.00;91.40;;;;;;5033586;28;20226;-70
2023/03/18 02:54:20;;;;;;;2.40;1.30;;;11.00;91.40;;;;;;5032884;28;20592;-69
2023/03/18 02:56:47;;;;;;;1.50;1.10;;;11.00;91.50;;;;;;5033163;28;20198;-70
2023/03/18 02:59:14;;;;;;;1.17;1.08;;;11.00;91.50;;;;;;5034855;28;20209;-69
2023/03/18 03:01:43;;;;;;;4.03;1.80;;;11.00;91.70;;;;;;5053101;28;20916;-69
2023/03/18 03:04:12;;;;;;;1.30;1.20;;;10.90;92.00;;;;;;5052693;28;20224;-70
2023/03/18 03:06:40;;;;;;;2.10;1.30;;;10.80;92.10;;;;;;5052698;28;20691;-70
2023/03/18 03:09:09;;;;;;;2.65;1.17;;;10.70;92.20;;;;;;5052849;28;20201;-69
2023/03/18 03:11:36;;;;;;;2.72;1.58;;;10.70;92.10;;;;;;5052873;28;20208;-70
2023/03/18 03:14:03;;;;;;;1.10;0.95;;;10.70;91.90;;;;;;5052607;28;20232;-68
2023/03/18 03:16:30;;;;;;;1.20;1.05;;;10.70;91.90;;;;;;5052613;28;20205;-70
2023/03/18 03:18:57;;;;;;;2.85;1.20;;;10.80;91.90;;;;;;5053048;28;20217;-69
2023/03/18 03:21:26;;;;;;;2.25;1.10;;;10.80;91.80;;;;;;5052587;28;20213;-70
2023/03/18 03:23:54;;;;;;;4.20;1.55;;;10.80;92.10;;;;;;5052820;28;20236;-69
2023/03/18 03:26:21;;;;;;;1.67;1.42;;;10.70;91.90;;;;;;5052304;28;20228;-70
2023/03/18 03:28:48;;;;;;;3.63;1.83;;;10.70;91.90;;;;;;5051936;28;20197;-70
2023/03/18 03:31:15;;;;;;;2.72;1.10;;;10.70;92.10;;;;;;5052475;28;20684;-69
2023/03/18 03:33:42;;;;;;;2.00;1.35;;;10.70;92.30;;;;;;5052440;28;20221;-69
2023/03/18 03:36:11;;;;;;;4.95;1.15;;;10.60;92.30;;;;;;5052160;28;20288;-70
2023/03/18 03:38:40;;;;;;;2.25;1.23;;;10.60;92.30;;;;;;5052244;28;20589;-69
2023/03/18 03:41:09;;;;;;;1.67;1.27;;;10.50;92.30;;;;;;5052358;28;20232;-69
2023/03/18 03:43:36;;;;;;;1.52;1.40;;;10.50;92.30;;;;;;5052247;28;20229;-70
2023/03/18 03:46:03;;;;;;;2.58;1.20;;;10.50;92.40;;;;;;5051893;28;20205;-70
2023/03/18 03:48:30;;;;;;;1.60;1.50;;;10.40;92.40;;;;;;5052096;28;20197;-70
2023/03/18 03:50:57;;;;;;;3.38;1.17;;;10.40;92.40;;;;;;5052429;28;20209;-68
2023/03/18 03:53:24;;;;;;;2.75;1.27;;;10.50;92.40;;;;;;5041178;28;20809;-70
2023/03/18 03:55:53;;;;;;;1.25;1.10;;;10.50;92.20;;;;;;5032006;28;20210;-70
2023/03/18 03:58:20;;;;;;;2.75;1.45;;;10.50;92.20;;;;;;5031887;28;20225;-70
2023/03/18 04:00:47;;;;;;;2.92;1.70;;;10.50;92.10;;;;;;5032662;28;20205;-70
2023/03/18 04:03:14;;;;;;;1.40;1.30;;;10.50;92.30;;;;;;5032146;28;20205;-69
2023/03/18 04:05:42;;;;;;;1.85;1.38;;;10.40;92.30;;;;;;5032194;28;20197;-70
2023/03/18 04:08:08;;;;;;;1.75;1.30;;;10.40;92.30;;;;;;5032683;28;20198;-69
2023/03/18 04:10:35;;;;;;;2.22;1.10;;;10.40;92.50;;;;;;5031866;28;20200;-69
2023/03/18 04:13:04;;;;;;;4.18;1.38;;;10.30;92.80;;;;;;5031880;28;20205;-69
2023/03/18 04:15:31;;;;;;;1.38;1.15;;;10.30;92.70;;;;;;5031121;28;20202;-70
2023/03/18 04:18:01;;;;;;;1.52;1.30;;;10.20;92.80;;;;;;5032840;28;20708;-70
2023/03/18 04:20:27;;;;;;;2.67;1.63;;;10.10;92.80;;;;;;5031469;28;20205;-70
2023/03/18 04:22:54;;;;;;;1.30;1.20;;;10.10;92.80;;;;;;5031771;28;20692;-69
2023/03/18 04:25:21;;;;;;;1.85;1.38;;;10.10;93.00;;;;;;5033112;28;20225;-69
2023/03/18 04:27:47;;;;;;;1.90;1.30;;;10.10;93.10;;;;;;5051472;28;20224;-69
2023/03/18 04:30:16;;;;;;;1.40;1.25;;;10.00;93.10;;;;;;5043851;28;20210;-69
2023/03/18 04:32:43;;;;;;;1.40;1.15;;;10.00;93.30;;;;;;5031680;28;20208;-69
2023/03/18 04:35:10;;;;;;;2.00;1.25;;;9.90;93.90;;;;;;5031175;28;20225;-69
2023/03/18 04:37:37;;;;;;;1.98;1.35;;;9.90;93.80;;;;;;5030974;28;20826;-70
2023/03/18 04:40:05;;;;;;;1.85;1.20;;;9.80;93.70;;;;;;5038181;28;20292;-69
2023/03/18 04:42:32;;;;;;;2.92;1.70;;;9.80;93.80;;;;;;5050890;28;20204;-69
2023/03/18 04:44:59;;;;;;;1.40;1.15;;;9.80;93.90;;;;;;5051262;28;20221;-70
2023/03/18 04:47:27;;;;;;;1.67;1.45;;;9.70;93.90;;;;;;5050445;28;20208;-70
2023/03/18 04:49:54;;;;;;;1.38;1.23;;;9.60;94.00;;;;;;5051512;28;20201;-70
2023/03/18 04:52:21;;;;;;;2.75;1.38;;;9.60;94.20;;;;;;5050932;28;20208;-70
2023/03/18 04:54:49;;;;;;;1.85;1.30;;;9.50;94.30;;;;;;5051059;28;20286;-70
2023/03/18 04:57:17;;;;;;;1.15;1.00;;;9.40;94.40;;;;;;5050340;28;20197;-70
2023/03/18 04:59:43;;;;;;;1.33;1.17;;;9.40;94.50;;;;;;5051054;28;20216;-70
2023/03/18 05:02:10;;;;;;;1.75;1.55;;;9.40;94.40;;;;;;5050734;28;20201;-69
2023/03/18 05:04:39;;;;;;;2.38;1.50;;;9.40;94.40;;;;;;5050328;28;20221;-69
2023/03/18 05:07:06;;;;;;;2.50;1.45;;;9.30;94.40;;;;;;5050615;28;20254;-69
2023/03/18 05:09:33;;;;;;;1.65;1.48;;;9.30;94.40;;;;;;5039304;28;20197;-70
2023/03/18 05:11:59;;;;;;;2.05;1.50;;;9.30;94.40;;;;;;5030780;28;20301;-69
2023/03/18 05:14:27;;;;;;;1.55;1.38;;;9.30;94.30;;;;;;5030298;28;20226;-70
2023/03/18 05:16:54;;;;;;;1.30;1.20;;;9.30;94.30;;;;;;5030704;28;20209;-70
2023/03/18 05:19:21;;;;;;;3.00;1.80;;;9.30;94.30;;;;;;5030454;28;20229;-69
2023/03/18 05:21:49;;;;;;;2.50;1.48;;;9.30;94.30;;;;;;5030665;28;20205;-69
2023/03/18 05:24:16;;;;;;;1.95;1.50;;;9.30;94.20;;;;;;5030249;28;20848;-70
2023/03/18 05:26:43;;;;;;;2.47;1.35;;;9.30;94.30;;;;;;5042830;28;20204;-70
2023/03/18 05:29:10;;;;;;;2.83;1.45;;;9.30;94.40;;;;;;5050618;28;20204;-70
2023/03/18 05:31:37;;;;;;;1.83;1.40;;;9.20;94.50;;;;;;5050271;28;20231;-70
2023/03/18 05:34:05;;;;;;;8.15;1.67;;;9.20;94.70;;;;;;5050266;28;20271;-70
2023/03/18 05:36:32;;;;;;;1.73;1.50;;;9.10;94.80;;;;;;5049843;28;20209;-70
2023/03/18 05:39:00;;;;;;;2.20;2.00;;;9.00;94.90;;;;;;5050124;28;20221;-69
2023/03/18 05:41:27;;;;;;;1.42;1.10;;;9.00;95.20;;;;;;5049980;28;20201;-70
2023/03/18 05:43:54;;;;;;;1.67;1.27;;;8.90;95.40;;;;;;5049985;28;20225;-70
2023/03/18 05:46:20;;;;;;;2.08;1.38;;;8.80;95.60;;;;;;5049728;28;20201;-69
2023/03/18 05:48:47;;;;;;;2.35;1.40;;;8.70;95.70;;;;;;5050198;28;20821;-69
2023/03/18 05:51:14;;;;;;;4.82;1.30;;;8.70;95.90;;;;;;5049662;28;20611;-69
2023/03/18 05:53:40;;;;;;;1.70;1.42;;;8.50;96.00;;;;;;5049930;28;20243;-70
2023/03/18 05:56:09;;;;;;;2.85;1.50;;;8.40;96.10;;;;;;5049830;28;20232;-70
2023/03/18 05:58:37;;;;;;;3.83;1.60;;;8.40;96.00;;;;;;5049555;28;20239;-69
2023/03/18 06:01:03;;;;;;;1.10;1.00;;;8.30;96.20;;;;;;5049928;28;20219;-70
2023/03/18 06:03:30;;;;;;;2.35;1.45;;;8.30;96.30;;;;;;5049357;28;20640;-70
2023/03/18 06:05:57;;;;;;;1.92;1.50;;;8.20;96.60;;;;;;5049456;28;20555;-69
2023/03/18 06:08:24;;;;;;;1.80;1.45;;;8.20;96.60;;;;;;5049284;28;20679;-69
2023/03/18 06:10:51;;;;;;;1.35;1.25;;;8.10;96.70;;;;;;5049716;28;20703;-69
2023/03/18 06:13:20;;;;;;;1.20;1.10;;;8.10;96.70;;;;;;5049360;28;20236;-69
2023/03/18 06:15:47;;;;;;;6.07;1.70;;;8.10;96.80;;;;;;5049363;28;20212;-70
2023/03/18 06:18:14;;;;;;;2.40;1.45;;;8.10;96.90;;;;;;5049605;28;20224;-70
2023/03/18 06:20:41;;;;;;;1.33;1.17;;;8.10;96.60;;;;;;5049678;28;20236;-70
2023/03/18 06:23:08;;;;;;;2.00;1.20;;;8.20;96.70;;;;;;5049463;28;20202;-70
2023/03/18 06:25:35;;;;;;;1.40;1.17;;;8.20;96.30;;;;;;5048608;28;20205;-70
2023/03/18 06:28:02;;;;;;;1.70;1.38;;;8.30;96.40;;;;;;5049881;28;20197;-69
2023/03/18 06:30:31;;;;;;;2.65;2.10;;;8.30;96.10;;;;;;5049182;28;20247;-70
2023/03/18 06:32:57;;;;;;;2.08;1.48;;;8.40;96.30;;;;;;5049588;28;20292;-70
2023/03/18 06:35:25;;;;;;;1.75;1.30;;;8.40;96.30;;;;;;5031355;28;20226;-69
2023/03/18 06:37:52;;;;;;;1.95;1.40;;;8.50;96.40;;;;;;5029381;28;20259;-70
2023/03/18 06:40:19;;;;;;;2.33;1.35;;;8.50;96.10;;;;;;5029482;28;20226;-69
2023/03/18 06:42:46;;;;;;;1.40;1.30;;;8.50;96.40;;;;;;5029703;28;20205;-70
2023/03/18 06:45:14;;;;;;;2.80;1.65;;;8.50;96.40;;;;;;5029523;28;20628;-69
2023/03/18 06:47:42;;;;;;;2.33;1.85;;;8.60;96.40;;;;;;5029126;28;20197;-70
2023/03/18 06:50:10;;;;;;;4.40;1.60;;;8.70;96.30;;;;;;5029788;28;20209;-69
2023/03/18 06:52:37;;;;;;;1.48;1.38;;;8.70;96.30;;;;;;5029242;28;20586;-69
2023/03/18 06:55:05;;;;;;;2.33;1.52;;;8.90;96.30;;;;;;5029528;28;20222;-70
2023/03/18 06:57:33;;;;;;;2.00;1.50;;;9.00;96.00;;;;;;5028915;28;20240;-69
2023/03/18 07:00:00;;;;;;;1.48;1.02;;;9.10;95.70;;;;;;5029504;28;20704;-68
2023/03/18 07:02:27;;;;;;;2.17;1.10;;;9.30;95.30;;;;;;5029378;28;20202;-69
2023/03/18 07:04:55;;;;;;;2.92;1.60;;;9.40;95.40;;;;;;5033438;28;20611;-70
2023/03/18 07:07:23;;;;;;;1.90;1.20;;;9.60;95.10;;;;;;5032811;28;20210;-69
2023/03/18 07:09:51;;;;;;;2.80;1.40;;;9.80;94.80;;;;;;5032856;28;20197;-69
2023/03/18 07:12:18;;;;;;;1.35;1.25;;;10.20;93.90;;;;;;5032394;28;20248;-69
2023/03/18 07:14:45;;;;;;;1.50;1.40;;;10.50;92.90;;;;;;5032569;28;20218;-69
2023/03/18 07:17:13;;;;;;;1.40;1.10;;;11.00;92.90;;;;;;5032734;28;20206;-70
2023/03/18 07:19:40;;;;;;;1.20;1.10;;;11.50;92.10;;;;;;5043849;28;20219;-70
2023/03/18 07:22:08;;;;;;;2.75;1.63;;;11.80;91.70;;;;;;5052778;28;20231;-70
2023/03/18 07:24:36;;;;;;;1.40;1.30;;;12.40;91.60;;;;;;5052178;28;20603;-70
2023/03/18 07:27:03;;;;;;;2.37;1.20;;;12.80;90.60;;;;;;5044748;28;20472;-71
2023/03/18 07:29:30;;;;;;;1.30;1.20;;;13.40;90.60;;;;;;5032554;28;20456;-70
2023/03/18 07:31:56;;;;;;;2.00;1.27;;;14.00;90.80;;;;;;5032943;28;20487;-70
2023/03/18 07:34:23;;;;;;;1.83;1.33;;;14.50;89.10;;;;;;5032845;28;20480;-70
2023/03/18 07:36:50;;;;;;;1.87;1.50;;;14.80;87.40;;;;;;5051969;28;20459;-70
2023/03/18 07:39:36;;;;;;;2.43;1.43;;;14.80;86.40;;;;;;5090286;22;20502;-94
2023/03/18 07:42:08;;;;;;;1.20;1.10;;;14.80;85.90;;;;;;5065148;28;20444;-94
2023/03/18 07:44:35;;;;;;;2.43;1.47;;;15.10;86.20;;;;;;5079613;22;21014;-73
2023/03/18 07:47:02;;;;;;;1.50;1.17;;;15.60;84.80;;;;;;5074568;28;20504;-73
2023/03/18 07:49:30;;;;;;;4.20;3.10;;;16.00;84.00;;;;;;5073971;28;20461;-73
2023/03/18 07:51:57;;;;;;;2.20;1.50;;;16.50;83.50;;;;;;5064000;28;20545;-73
2023/03/18 07:54:25;;;;;;;1.87;1.43;;;17.10;82.70;;;;;;5064812;28;20475;-74
2023/03/18 07:56:53;;;;;;;2.70;1.60;;;17.60;80.80;;;;;;5053336;28;20452;-72
2023/03/18 07:59:20;;;;;;;2.93;1.47;;;17.90;81.90;;;;;;5069590;28;20515;-73
2023/03/18 08:01:47;;;;;;;2.10;1.27;;;18.10;80.40;;;;;;5070079;28;20501;-73
2023/03/18 08:04:15;;;;;;;1.50;1.40;;;18.60;79.90;;;;;;5056566;28;20533;-73
2023/03/18 08:06:42;;;;;;;1.37;1.10;;;18.90;77.90;;;;;;5057286;28;20456;-72
2023/03/18 08:09:09;;;;;;;1.50;1.27;;;19.10;78.90;;;;;;5058386;28;20872;-72
2023/03/18 08:11:37;;;;;;;1.50;1.40;;;18.90;77.30;;;;;;5057367;28;20562;-74
2023/03/18 08:14:04;;;;;;;1.23;1.13;;;18.90;77.80;;;;;;5056502;28;20881;-74
2023/03/18 08:16:31;;;;;;;1.93;1.20;;;19.00;77.90;;;;;;5057248;28;20479;-73
2023/03/18 08:18:57;;;;;;;1.47;1.33;;;19.20;77.20;;;;;;5075733;28;20490;-76
2023/03/18 08:21:24;;;;;;;1.50;1.20;;;19.70;77.90;;;;;;5074997;28;20501;-75
2023/03/18 08:23:51;;;;;;;1.67;1.33;;;19.90;75.50;;;;;;5075077;28;20489;-73
2023/03/18 08:26:18;;;;;;;1.30;1.20;;;20.10;74.40;;;;;;5074170;28;20459;-73
2023/03/18 08:28:46;;;;;;;1.57;1.20;;;20.00;75.10;;;;;;5073946;28;20455;-72
2023/03/18 08:31:13;;;;;;;1.70;1.40;;;20.60;74.90;;;;;;5073965;28;20469;-75
2023/03/18 08:33:40;;;;;;;2.90;1.50;;;21.00;74.10;;;;;;5074260;28;20482;-72
2023/03/18 08:36:08;;;;;;;1.73;1.17;;;21.60;72.40;;;;;;5073307;28;20489;-72
2023/03/18 08:38:34;;;;;;;1.40;1.20;;;22.20;73.10;;;;;;5073706;28;20519;-73
2023/03/18 08:41:02;;;;;;;1.60;1.40;;;22.90;73.00;;;;;;5074245;28;20535;-73
2023/03/18 08:43:29;;;;;;;2.13;1.30;;;23.60;69.90;;;;;;5073223;28;20493;-72
2023/03/18 08:45:57;;;;;;;1.50;1.00;;;23.70;70.20;;;;;;5073764;28;20466;-73
2023/03/18 08:48:25;;;;;;;1.53;1.30;;;23.90;69.00;;;;;;5064581;28;20468;-72
2023/03/18 08:50:52;;;;;;;1.93;1.10;;;24.60;67.50;;;;;;5053850;28;21002;-73
2023/03/18 08:53:19;;;;;;;1.37;1.03;;;25.30;68.00;;;;;;5053358;28;20977;-73
2023/03/18 08:55:54;;;;;;;1.53;1.20;;;25.60;65.00;;;;;;5053003;28;20459;-73
2023/03/18 08:58:22;;;;;;;1.23;1.00;;;25.40;66.00;;;;;;5052706;28;20464;-72
2023/03/18 09:00:49;;;;;;;2.60;1.20;;;25.40;65.40;;;;;;5053126;28;20542;-72
2023/03/18 09:03:17;;;;;;;1.30;1.10;;;26.00;64.50;;;;;;5050746;28;20478;-72
2023/03/18 09:05:47;;;;;;;2.20;1.33;;;26.70;63.50;;;;;;5049958;28;20455;-72
2023/03/18 09:08:14;;;;;;;1.90;1.30;;;27.10;62.80;;;;;;5051179;28;20463;-72
2023/03/18 09:10:41;;;;;;;1.47;1.37;;;27.60;63.90;;;;;;5051416;28;20972;-72
2023/03/18 09:13:08;;;;;;;1.50;1.30;;;26.80;61.80;;;;;;5052105;28;20492;-72
2023/03/18 09:15:34;;;;;;;2.47;1.40;;;26.60;62.70;;;;;;5050941;28;20465;-73
2023/03/18 09:18:01;;;;;;;1.60;1.10;;;26.60;63.20;;;;;;5051958;28;20465;-73
2023/03/18 09:20:29;;;;;;;2.07;1.33;;;26.60;62.80;;;;;;5051704;28;21213;-74
2023/03/18 09:22:56;;;;;;;1.53;1.10;;;25.90;62.90;;;;;;5052069;28;20466;-73
2023/03/18 09:25:23;;;;;;;1.50;1.17;;;24.60;63.40;;;;;;5051005;28;20890;-73
2023/03/18 09:27:50;;;;;;;2.00;1.73;;;24.40;67.00;;;;;;5051826;28;20989;-73
2023/03/18 09:30:17;;;;;;;1.67;1.50;;;25.40;64.10;;;;;;5052078;28;20457;-73
2023/03/18 09:32:43;;;;;;;2.10;1.40;;;25.30;64.20;;;;;;5051912;28;20467;-74
2023/03/18 09:35:11;;;;;;;1.47;1.23;;;25.40;64.80;;;;;;5053959;28;20484;-73
2023/03/18 09:37:39;;;;;;;1.43;1.17;;;25.60;61.80;;;;;;5054196;28;20467;-73
2023/03/18 09:40:09;;;;;;;1.20;1.10;;;24.80;62.80;;;;;;5053969;28;21013;-72
2023/03/18 09:42:49;;;;;;;2.30;1.10;;;25.30;64.20;;;;;;5054244;28;20459;-73
2023/03/18 09:45:21;;;;;;;1.13;1.03;;;25.80;61.10;;;;;;5067545;28;20486;-73
2023/03/18 09:48:15;;;;;;;1.80;1.00;;;25.20;61.50;;;;;;5073211;28;20515;-73
2023/03/18 09:50:51;;;;;;;2.07;1.30;;;24.70;62.20;;;;;;5067271;28;20476;-72
2023/03/18 09:53:23;;;;;;;1.30;1.20;;;23.90;61.30;;;;;;5073469;28;20465;-73
2023/03/18 09:55:54;;;;;;;1.83;1.27;;;24.00;64.10;;;;;;5074718;28;20478;-73
2023/03/18 09:58:26;;;;;;;1.60;1.27;;;25.00;62.10;;;;;;5073438;28;20455;-73
2023/03/18 10:00:58;;;;;;;1.17;0.90;;;25.50;61.70;;;;;;5073008;28;21238;-73
2023/03/18 10:03:32;;;;;;;3.63;1.30;;;26.10;60.70;;;;;;5071982;28;20523;-73
2023/03/18 10:06:05;;;;;;;2.30;1.37;;;26.00;61.10;;;;;;5071682;28;20457;-72
2023/03/18 10:08:43;;;;;;;1.67;1.20;;;26.40;60.10;;;;;;5072633;28;20838;-73
2023/03/18 10:11:23;;;;;;;1.53;1.00;;;27.60;61.70;;;;;;5073101;28;20462;-72
2023/03/18 10:14:10;;;;;;;2.87;1.40;;;28.40;60.40;;;;;;5061842;28;20492;-73
2023/03/18 10:16:54;;;;;;;1.30;1.20;;;29.10;58.80;;;;;;5051988;28;20468;-72
2023/03/18 10:19:22;;;;;;;1.50;1.20;;;29.40;57.90;;;;;;5051426;28;20996;-73
2023/03/18 10:21:59;;;;;;;2.10;1.53;;;30.20;57.50;;;;;;5051834;28;20520;-73
2023/03/18 10:24:35;;;;;;;1.40;1.10;;;30.70;56.10;;;;;;5051393;28;20976;-73
2023/03/18 10:27:13;;;;;;;2.17;1.50;;;29.70;55.50;;;;;;5064596;28;20979;-72
2023/03/18 10:29:46;;;;;;;2.07;1.37;;;28.80;57.10;;;;;;5071771;28;20459;-73
2023/03/18 10:32:27;;;;;;;1.37;1.27;;;29.10;59.90;;;;;;5071763;28;20467;-73
2023/03/18 10:35:02;;;;;;;2.30;1.87;;;29.50;59.30;;;;;;5071243;28;20524;-73
2023/03/18 10:37:41;;;;;;;1.70;1.50;;;29.90;60.60;;;;;;5071477;28;20493;-72
2023/03/18 10:40:16;;;;;;;2.93;1.80;;;30.00;59.60;;;;;;5068119;28;21076;-73
2023/03/18 10:42:44;;;;;;;1.50;1.40;;;30.20;59.30;;;;;;5056811;28;20460;-73
2023/03/18 10:45:21;;;;;;;1.60;1.10;;;30.90;60.00;;;;;;5055295;28;20579;-73
2023/03/18 10:47:56;;;;;;;2.00;1.27;;;31.20;60.40;;;;;;5055241;28;20497;-72
2023/03/18 10:50:29;;;;;;;1.30;1.20;;;31.70;60.20;;;;;;5054703;28;20471;-73
2023/03/18 10:53:03;;;;;;;1.83;1.43;;;31.40;58.30;;;;;;5067098;28;20959;-73
2023/03/18 10:55:35;;;;;;;3.63;1.30;;;30.90;58.50;;;;;;5074548;28;20475;-73
2023/03/18 10:58:13;;;;;;;2.10;1.00;;;28.80;54.20;;;;;;5068067;28;20463;-72
2023/03/18 11:00:40;;;;;;;1.50;1.17;;;27.10;57.40;;;;;;5072822;28;20519;-73
2023/03/18 11:03:10;;;;;;;1.00;0.90;;;25.30;56.10;;;;;;5072467;28;20482;-74
2023/03/18 11:05:37;;;;;;;1.77;1.10;;;24.40;58.40;;;;;;5059869;28;20474;-72
2023/03/18 11:08:07;;;;;;;1.37;0.90;;;24.90;55.70;;;;;;5073987;28;20459;-72
2023/03/18 11:10:39;;;;;;;1.80;1.10;;;24.70;56.40;;;;;;5057860;28;20546;-72
2023/03/18 11:13:06;;;;;;;1.20;1.10;;;25.20;54.90;;;;;;5054272;28;20516;-72
2023/03/18 11:15:37;;;;;;;1.53;0.90;;;25.40;55.20;;;;;;5053761;28;20827;-72
2023/03/18 11:18:04;;;;;;;1.57;1.00;;;26.00;55.30;;;;;;5054882;28;21046;-73
2023/03/18 11:20:41;;;;;;;2.50;1.30;;;26.20;55.80;;;;;;5056144;28;20590;-72
2023/03/18 11:23:16;;;;;;;4.03;1.20;;;26.40;56.00;;;;;;5062683;28;20465;-72
2023/03/18 11:25:48;;;;;;;2.10;1.40;;;26.20;55.00;;;;;;5077220;28;21027;-72
2023/03/18 11:28:22;;;;;;;1.40;1.10;;;26.20;57.30;;;;;;5079326;28;20492;-72
2023/03/18 11:30:51;;;;;;;1.93;1.23;;;27.30;57.50;;;;;;5074581;28;20465;-72
2023/03/18 11:33:20;;;;;;;1.80;1.20;;;28.00;56.90;;;;;;5061372;28;20492;-73
2023/03/18 11:35:51;;;;;;;1.10;1.00;;;27.70;55.70;;;;;;5056315;28;20457;-73
2023/03/18 11:38:21;;;;;;;2.03;1.10;;;28.10;55.70;;;;;;5061491;28;20515;-73
2023/03/18 11:40:50;;;;;;;1.87;1.30;;;28.70;54.50;;;;;;5066422;28;20477;-73
2023/03/18 11:43:20;;;;;;;1.80;1.10;;;28.20;54.80;;;;;;5055059;28;20473;-73
2023/03/18 11:45:51;;;;;;;2.60;1.30;;;27.50;55.40;;;;;;5054373;28;21156;-73
2023/03/18 11:48:29;;;;;;;2.47;1.27;;;27.00;55.80;;;;;;5054118;28;20880;-73
2023/03/18 11:51:21;;;;;;;3.80;1.73;;;26.70;56.10;;;;;;5054147;28;20452;-73
2023/03/18 11:54:04;;;;;;;2.10;1.40;;;25.60;57.80;;;;;;5053931;28;20887;-73
2023/03/18 11:56:35;;;;;;;1.80;1.27;;;25.80;56.90;;;;;;5070094;28;20458;-73
2023/03/18 11:59:28;;;;;;;1.57;1.27;;;26.20;56.50;;;;;;5074154;28;20450;-73
2023/03/18 12:02:09;;;;;;;1.73;1.20;;;25.60;57.80;;;;;;5073069;28;20875;-73
2023/03/18 12:05:01;;;;;;;2.17;1.50;;;25.00;58.10;;;;;;5073183;28;21024;-73
2023/03/18 12:07:58;;;;;;;4.20;1.50;;;26.20;59.30;;;;;;5073377;28;20469;-73
2023/03/18 12:10:32;;;;;;;1.30;1.03;;;26.30;57.00;;;;;;5074276;28;20459;-73
2023/03/18 12:13:21;;;;;;;3.20;1.37;;;25.80;57.90;;;;;;5062402;28;20840;-73
2023/03/18 12:15:54;;;;;;;1.53;1.10;;;25.60;56.90;;;;;;5053135;28;20459;-73
2023/03/18 12:18:40;;;;;;;2.20;1.33;;;25.30;57.10;;;;;;5053302;28;20462;-73
2023/03/18 12:21:33;;;;;;;2.23;1.80;;;24.70;57.30;;;;;;5052907;28;20471;-73
2023/03/18 12:24:15;;;;;;;3.20;1.30;;;25.40;57.30;;;;;;5059522;28;20519;-73
2023/03/18 12:26:51;;;;;;;1.90;1.10;;;26.40;57.00;;;;;;5052684;28;20939;-73
2023/03/18 12:29:43;;;;;;;1.50;1.13;;;27.40;54.20;;;;;;5053075;28;20462;-73
2023/03/18 12:32:24;;;;;;;1.10;1.00;;;26.60;54.20;;;;;;5052738;28;20995;-73
2023/03/18 12:35:06;;;;;;;1.50;1.10;;;25.90;56.30;;;;;;5053032;28;20493;-74
2023/03/18 12:37:49;;;;;;;1.43;1.07;;;25.20;56.80;;;;;;5052625;28;20554;-73
2023/03/18 12:40:37;;;;;;;3.63;1.20;;;25.70;55.50;;;;;;5065981;28;20470;-74
2023/03/18 12:43:28;;;;;;;1.67;1.10;;;25.50;55.50;;;;;;5073012;28;20455;-74
2023/03/18 12:46:03;;;;;;;2.80;1.33;;;25.10;55.90;;;;;;5073280;28;20466;-73
2023/03/18 12:48:33;;;;;;;2.73;1.50;;;24.60;56.80;;;;;;5056970;28;20954;-74
2023/03/18 12:51:04;;;;;;;2.10;1.27;;;24.90;57.60;;;;;;5051283;28;20467;-74
2023/03/18 12:53:35;;;;;;;3.40;1.13;;;26.00;56.20;;;;;;5051787;28;20574;-74
2023/03/18 12:56:08;;;;;;;1.10;1.00;;;27.00;55.20;;;;;;5071982;28;20545;-74
2023/03/18 12:58:41;;;;;;;1.30;0.90;;;27.90;55.10;;;;;;5072808;28;20453;-73
2023/03/18 13:01:16;;;;;;;1.43;1.03;;;28.20;53.50;;;;;;5057885;28;20575;-73